sensor_id;sensor_type;location;lat;lon;timestamp;P1;durP1;ratioP1;P2;durP2;ratioP2
5414;SDS011;2730;51.512;7.504;2022-11-20T06:01:17;22.52;;;11.55;;
5414;SDS011;2730;51.512;7.504;2022-11-20T06:03:45;22.98;;;12.13;;
5414;SDS011;2730;51.512;7.504;2022-11-20T06:06:13;22.92;;;11.68;;
5414;SDS011;2730;51.512;7.504;2022-11-20T06:08:40;26.48;;;12.45;;
5414;SDS011;2730;51.512;7.504;2022-11-20T06:11:08;22.77;;;12.05;;
5414;SDS011;2730;51.512;7.504;2022-11-20T06:13:35;20.90;;;9.52;;
5414;SDS011;2730;51.512;7.504;2022-11-20T06:16:03;19.33;;;10.07;;
5414;SDS011;2730;51.512;7.504;2022-11-20T06:18:31;21.85;;;10.85;;
5414;SDS011;2730;51.512;7.504;2022-11-20T06:20:59;23.45;;;11.48;;
5414;SDS011;2730;51.512;7.504;2022-11-20T06:23:27;25.13;;;12.23;;
5414;SDS011;2730;51.512;7.504;2022-11-20T06:25:55;30.23;;;13.02;;
5414;SDS011;2730;51.512;7.504;2022-11-20T06:28:21;24.00;;;11.70;;
5414;SDS011;2730;51.512;7.504;2022-11-20T06:30:48;25.33;;;11.88;;
5414;SDS011;2730;51.512;7.504;2022-11-20T06:33:15;21.73;;;11.00;;
5414;SDS011;2730;51.512;7.504;2022-11-20T06:35:43;22.38;;;10.57;;
5414;SDS011;2730;51.512;7.504;2022-11-20T06:38:10;28.30;;;11.60;;
5414;SDS011;2730;51.512;7.504;2022-11-20T06:40:39;30.55;;;11.85;;
5414;SDS011;2730;51.512;7.504;2022-11-20T06:43:06;26.13;;;11.30;;
5414;SDS011;2730;51.512;7.504;2022-11-20T06:45:33;24.55;;;10.57;;
5414;SDS011;2730;51.512;7.504;2022-11-20T06:48:00;25.60;;;11.35;;
5414;SDS011;2730;51.512;7.504;2022-11-20T06:50:26;24.65;;;11.80;;
5414;SDS011;2730;51.512;7.504;2022-11-20T06:52:54;25.48;;;11.32;;
5414;SDS011;2730;51.512;7.504;2022-11-20T06:55:21;25.83;;;12.77;;
5414;SDS011;2730;51.512;7.504;2022-11-20T06:57:48;30.17;;;13.77;;
5414;SDS011;2730;51.512;7.504;2022-11-20T07:00:16;31.02;;;13.40;;
5414;SDS011;2730;51.512;7.504;2022-11-20T07:02:43;27.33;;;12.90;;
5414;SDS011;2730;51.512;7.504;2022-11-20T07:05:10;26.13;;;13.00;;
5414;SDS011;2730;51.512;7.504;2022-11-20T07:07:36;24.15;;;12.65;;
5414;SDS011;2730;51.512;7.504;2022-11-20T07:10:05;26.15;;;12.73;;
5414;SDS011;2730;51.512;7.504;2022-11-20T07:12:33;28.83;;;12.27;;
5414;SDS011;2730;51.512;7.504;2022-11-20T07:14:59;29.33;;;13.55;;
5414;SDS011;2730;51.512;7.504;2022-11-20T07:17:26;32.53;;;14.52;;
5414;SDS011;2730;51.512;7.504;2022-11-20T07:19:53;40.33;;;15.02;;
5414;SDS011;2730;51.512;7.504;2022-11-20T07:22:20;28.05;;;12.45;;
5414;SDS011;2730;51.512;7.504;2022-11-20T07:24:46;36.75;;;14.40;;
5414;SDS011;2730;51.512;7.504;2022-11-20T07:27:14;26.75;;;12.80;;
5414;SDS011;2730;51.512;7.504;2022-11-20T07:29:41;30.48;;;14.10;;
5414;SDS011;2730;51.512;7.504;2022-11-20T07:32:08;28.00;;;13.68;;
5414;SDS011;2730;51.512;7.504;2022-11-20T07:34:35;31.52;;;12.75;;
5414;SDS011;2730;51.512;7.504;2022-11-20T07:37:01;27.63;;;12.48;;
5414;SDS011;2730;51.512;7.504;2022-11-20T07:39:28;28.95;;;14.20;;
5414;SDS011;2730;51.512;7.504;2022-11-20T07:41:55;26.77;;;12.43;;
5414;SDS011;2730;51.512;7.504;2022-11-20T07:44:23;27.08;;;12.07;;
5414;SDS011;2730;51.512;7.504;2022-11-20T07:46:50;25.42;;;11.15;;
5414;SDS011;2730;51.512;7.504;2022-11-20T07:49:17;30.00;;;13.20;;
5414;SDS011;2730;51.512;7.504;2022-11-20T07:51:43;26.60;;;12.50;;
5414;SDS011;2730;51.512;7.504;2022-11-20T07:54:10;31.77;;;13.77;;
5414;SDS011;2730;51.512;7.504;2022-11-20T07:56:37;26.00;;;11.30;;
5414;SDS011;2730;51.512;7.504;2022-11-20T07:59:04;25.52;;;12.40;;
5414;SDS011;2730;51.512;7.504;2022-11-20T08:01:32;24.38;;;12.05;;
5414;SDS011;2730;51.512;7.504;2022-11-20T08:03:59;29.88;;;12.50;;
5414;SDS011;2730;51.512;7.504;2022-11-20T08:06:25;23.73;;;11.73;;
5414;SDS011;2730;51.512;7.504;2022-11-20T08:08:52;27.40;;;13.23;;
5414;SDS011;2730;51.512;7.504;2022-11-20T08:11:19;27.92;;;14.00;;
5414;SDS011;2730;51.512;7.504;2022-11-20T08:14:03;24.60;;;12.77;;
5414;SDS011;2730;51.512;7.504;2022-11-20T08:16:40;31.85;;;14.00;;
5414;SDS011;2730;51.512;7.504;2022-11-20T08:19:08;35.08;;;13.68;;
5414;SDS011;2730;51.512;7.504;2022-11-20T08:21:35;27.25;;;14.45;;
5414;SDS011;2730;51.512;7.504;2022-11-20T08:24:02;28.38;;;13.77;;
5414;SDS011;2730;51.512;7.504;2022-11-20T08:26:29;31.08;;;15.00;;
5414;SDS011;2730;51.512;7.504;2022-11-20T08:28:56;32.30;;;15.10;;
5414;SDS011;2730;51.512;7.504;2022-11-20T08:31:24;29.92;;;15.18;;
5414;SDS011;2730;51.512;7.504;2022-11-20T08:33:53;30.73;;;14.98;;
5414;SDS011;2730;51.512;7.504;2022-11-20T08:36:21;31.05;;;14.43;;
5414;SDS011;2730;51.512;7.504;2022-11-20T08:38:49;29.85;;;14.32;;
5414;SDS011;2730;51.512;7.504;2022-11-20T08:41:17;31.15;;;14.20;;
5414;SDS011;2730;51.512;7.504;2022-11-20T08:43:50;34.50;;;15.50;;
5414;SDS011;2730;51.512;7.504;2022-11-20T08:46:19;35.33;;;16.00;;
5414;SDS011;2730;51.512;7.504;2022-11-20T08:48:46;29.42;;;15.32;;
5414;SDS011;2730;51.512;7.504;2022-11-20T08:51:14;28.88;;;15.10;;
5414;SDS011;2730;51.512;7.504;2022-11-20T08:53:42;29.92;;;15.43;;
5414;SDS011;2730;51.512;7.504;2022-11-20T08:56:09;32.03;;;14.35;;
5414;SDS011;2730;51.512;7.504;2022-11-20T08:58:36;25.85;;;14.05;;
5414;SDS011;2730;51.512;7.504;2022-11-20T09:01:03;32.45;;;13.93;;
5414;SDS011;2730;51.512;7.504;2022-11-20T09:03:31;23.33;;;12.75;;
5414;SDS011;2730;51.512;7.504;2022-11-20T09:05:58;21.17;;;11.00;;
5414;SDS011;2730;51.512;7.504;2022-11-20T09:08:27;21.95;;;11.23;;
5414;SDS011;2730;51.512;7.504;2022-11-20T09:10:54;19.05;;;10.40;;
5414;SDS011;2730;51.512;7.504;2022-11-20T09:13:22;15.98;;;9.35;;
5414;SDS011;2730;51.512;7.504;2022-11-20T09:15:52;20.88;;;11.02;;
5414;SDS011;2730;51.512;7.504;2022-11-20T09:18:19;21.90;;;10.27;;
5414;SDS011;2730;51.512;7.504;2022-11-20T09:20:46;15.45;;;9.48;;
5414;SDS011;2730;51.512;7.504;2022-11-20T09:23:14;18.55;;;9.38;;
5414;SDS011;2730;51.512;7.504;2022-11-20T09:25:42;16.98;;;9.98;;
5414;SDS011;2730;51.512;7.504;2022-11-20T09:28:09;16.30;;;9.93;;
5414;SDS011;2730;51.512;7.504;2022-11-20T09:30:36;19.77;;;12.13;;
5414;SDS011;2730;51.512;7.504;2022-11-20T09:33:03;10.30;;;7.75;;
5414;SDS011;2730;51.512;7.504;2022-11-20T09:35:31;13.88;;;8.25;;
5414;SDS011;2730;51.512;7.504;2022-11-20T09:37:57;14.10;;;7.85;;
5414;SDS011;2730;51.512;7.504;2022-11-20T09:40:25;11.55;;;7.40;;
5414;SDS011;2730;51.512;7.504;2022-11-20T09:42:56;15.80;;;8.65;;
5414;SDS011;2730;51.512;7.504;2022-11-20T09:45:30;12.52;;;8.38;;
5414;SDS011;2730;51.512;7.504;2022-11-20T09:48:17;16.00;;;9.55;;
5414;SDS011;2730;51.512;7.504;2022-11-20T09:50:53;15.02;;;9.05;;
5414;SDS011;2730;51.512;7.504;2022-11-20T09:53:27;21.00;;;11.57;;
5414;SDS011;2730;51.512;7.504;2022-11-20T09:56:01;19.10;;;10.95;;
5414;SDS011;2730;51.512;7.504;2022-11-20T09:58:32;20.02;;;10.68;;
5414;SDS011;2730;51.512;7.504;2022-11-20T10:01:09;21.67;;;11.00;;
5414;SDS011;2730;51.512;7.504;2022-11-20T10:03:40;20.42;;;9.95;;
5414;SDS011;2730;51.512;7.504;2022-11-20T10:06:13;21.10;;;10.43;;
5414;SDS011;2730;51.512;7.504;2022-11-20T10:08:44;19.75;;;10.90;;
5414;SDS011;2730;51.512;7.504;2022-11-20T10:11:18;23.45;;;11.10;;
5414;SDS011;2730;51.512;7.504;2022-11-20T10:13:55;30.50;;;12.63;;
5414;SDS011;2730;51.512;7.504;2022-11-20T10:16:30;24.33;;;12.25;;
5414;SDS011;2730;51.512;7.504;2022-11-20T10:19:08;20.15;;;10.30;;
5414;SDS011;2730;51.512;7.504;2022-11-20T10:21:47;21.60;;;11.50;;
5414;SDS011;2730;51.512;7.504;2022-11-20T10:24:25;25.38;;;12.63;;
5414;SDS011;2730;51.512;7.504;2022-11-20T10:27:04;23.05;;;10.77;;
5414;SDS011;2730;51.512;7.504;2022-11-20T10:29:42;17.52;;;9.70;;
5414;SDS011;2730;51.512;7.504;2022-11-20T10:32:14;16.35;;;9.45;;
5414;SDS011;2730;51.512;7.504;2022-11-20T10:34:46;18.55;;;10.13;;
5414;SDS011;2730;51.512;7.504;2022-11-20T10:37:17;14.98;;;9.73;;
5414;SDS011;2730;51.512;7.504;2022-11-20T10:39:49;18.73;;;9.68;;
5414;SDS011;2730;51.512;7.504;2022-11-20T10:42:23;19.30;;;9.07;;
5414;SDS011;2730;51.512;7.504;2022-11-20T10:45:02;15.55;;;8.25;;
5414;SDS011;2730;51.512;7.504;2022-11-20T10:47:39;15.18;;;8.18;;
5414;SDS011;2730;51.512;7.504;2022-11-20T10:50:08;13.88;;;8.70;;
5414;SDS011;2730;51.512;7.504;2022-11-20T10:52:41;13.98;;;8.18;;
5414;SDS011;2730;51.512;7.504;2022-11-20T10:55:18;14.65;;;8.45;;
5414;SDS011;2730;51.512;7.504;2022-11-20T10:57:58;13.25;;;7.32;;
5414;SDS011;2730;51.512;7.504;2022-11-20T11:00:33;16.55;;;8.32;;
5414;SDS011;2730;51.512;7.504;2022-11-20T11:03:00;15.73;;;9.93;;
5414;SDS011;2730;51.512;7.504;2022-11-20T11:05:33;16.10;;;7.05;;
5414;SDS011;2730;51.512;7.504;2022-11-20T11:08:04;10.68;;;7.22;;
5414;SDS011;2730;51.512;7.504;2022-11-20T11:10:39;12.43;;;6.70;;
5414;SDS011;2730;51.512;7.504;2022-11-20T11:13:18;11.77;;;6.60;;
5414;SDS011;2730;51.512;7.504;2022-11-20T11:15:47;11.65;;;6.38;;
5414;SDS011;2730;51.512;7.504;2022-11-20T11:18:22;23.13;;;8.80;;
5414;SDS011;2730;51.512;7.504;2022-11-20T11:20:51;14.00;;;7.90;;
5414;SDS011;2730;51.512;7.504;2022-11-20T11:23:25;18.02;;;8.25;;
5414;SDS011;2730;51.512;7.504;2022-11-20T11:25:57;13.07;;;7.03;;
5414;SDS011;2730;51.512;7.504;2022-11-20T11:28:25;17.20;;;7.75;;
5414;SDS011;2730;51.512;7.504;2022-11-20T11:30:54;10.20;;;6.80;;
5414;SDS011;2730;51.512;7.504;2022-11-20T11:33:22;17.15;;;8.07;;
5414;SDS011;2730;51.512;7.504;2022-11-20T11:35:51;12.10;;;7.47;;
5414;SDS011;2730;51.512;7.504;2022-11-20T11:38:22;13.43;;;6.90;;
5414;SDS011;2730;51.512;7.504;2022-11-20T11:40:55;11.23;;;6.32;;
5414;SDS011;2730;51.512;7.504;2022-11-20T11:43:23;13.05;;;6.50;;
5414;SDS011;2730;51.512;7.504;2022-11-20T11:46:22;12.23;;;7.72;;
5414;SDS011;2730;51.512;7.504;2022-11-20T11:48:56;15.18;;;8.25;;
5414;SDS011;2730;51.512;7.504;2022-11-20T11:51:25;13.02;;;8.05;;
5414;SDS011;2730;51.512;7.504;2022-11-20T11:53:56;8.27;;;5.40;;
5414;SDS011;2730;51.512;7.504;2022-11-20T11:56:25;11.02;;;6.10;;
5414;SDS011;2730;51.512;7.504;2022-11-20T11:58:53;12.52;;;7.35;;
5414;SDS011;2730;51.512;7.504;2022-11-20T12:01:29;12.60;;;7.10;;
5414;SDS011;2730;51.512;7.504;2022-11-20T12:04:00;10.80;;;6.70;;
5414;SDS011;2730;51.512;7.504;2022-11-20T12:06:31;11.75;;;6.25;;
5414;SDS011;2730;51.512;7.504;2022-11-20T12:09:01;14.40;;;5.97;;
5414;SDS011;2730;51.512;7.504;2022-11-20T12:11:30;13.25;;;6.70;;
5414;SDS011;2730;51.512;7.504;2022-11-20T12:14:02;13.68;;;7.70;;
5414;SDS011;2730;51.512;7.504;2022-11-20T12:16:39;9.50;;;6.00;;
5414;SDS011;2730;51.512;7.504;2022-11-20T12:19:08;13.55;;;6.55;;
5414;SDS011;2730;51.512;7.504;2022-11-20T12:21:39;11.68;;;6.88;;
5414;SDS011;2730;51.512;7.504;2022-11-20T12:24:26;10.23;;;7.10;;
5414;SDS011;2730;51.512;7.504;2022-11-20T12:30:07;11.30;;;6.75;;
5414;SDS011;2730;51.512;7.504;2022-11-20T12:35:41;14.80;;;6.72;;
5414;SDS011;2730;51.512;7.504;2022-11-20T12:38:27;14.02;;;7.50;;
5414;SDS011;2730;51.512;7.504;2022-11-20T12:41:15;14.27;;;7.63;;
5414;SDS011;2730;51.512;7.504;2022-11-20T12:44:13;17.90;;;7.40;;
5414;SDS011;2730;51.512;7.504;2022-11-20T12:47:11;13.60;;;7.40;;
5414;SDS011;2730;51.512;7.504;2022-11-20T12:49:47;13.77;;;7.15;;
5414;SDS011;2730;51.512;7.504;2022-11-20T12:52:27;9.80;;;6.72;;
5414;SDS011;2730;51.512;7.504;2022-11-20T12:55:13;16.20;;;7.55;;
5414;SDS011;2730;51.512;7.504;2022-11-20T12:57:49;10.15;;;6.25;;
5414;SDS011;2730;51.512;7.504;2022-11-20T13:00:20;11.05;;;6.35;;
5414;SDS011;2730;51.512;7.504;2022-11-20T13:02:56;13.00;;;8.43;;
5414;SDS011;2730;51.512;7.504;2022-11-20T13:05:43;13.93;;;6.40;;
5414;SDS011;2730;51.512;7.504;2022-11-20T13:08:20;12.77;;;7.38;;
5414;SDS011;2730;51.512;7.504;2022-11-20T13:10:50;17.08;;;7.60;;
5414;SDS011;2730;51.512;7.504;2022-11-20T13:13:25;15.65;;;6.70;;
5414;SDS011;2730;51.512;7.504;2022-11-20T13:16:00;12.38;;;6.47;;
5414;SDS011;2730;51.512;7.504;2022-11-20T13:18:33;15.95;;;8.95;;
5414;SDS011;2730;51.512;7.504;2022-11-20T13:21:14;14.68;;;8.50;;
5414;SDS011;2730;51.512;7.504;2022-11-20T13:23:42;14.63;;;8.27;;
5414;SDS011;2730;51.512;7.504;2022-11-20T13:26:16;19.02;;;8.57;;
5414;SDS011;2730;51.512;7.504;2022-11-20T13:28:45;18.17;;;9.43;;
5414;SDS011;2730;51.512;7.504;2022-11-20T13:31:24;15.43;;;8.60;;
5414;SDS011;2730;51.512;7.504;2022-11-20T13:33:57;18.60;;;9.18;;
5414;SDS011;2730;51.512;7.504;2022-11-20T13:36:27;19.42;;;10.25;;
5414;SDS011;2730;51.512;7.504;2022-11-20T13:38:56;20.27;;;9.27;;
5414;SDS011;2730;51.512;7.504;2022-11-20T13:41:24;18.65;;;8.75;;
5414;SDS011;2730;51.512;7.504;2022-11-20T13:43:57;17.20;;;8.00;;
5414;SDS011;2730;51.512;7.504;2022-11-20T13:46:37;16.35;;;9.65;;
5414;SDS011;2730;51.512;7.504;2022-11-20T13:49:09;16.60;;;8.40;;
5414;SDS011;2730;51.512;7.504;2022-11-20T13:51:44;12.55;;;8.60;;
5414;SDS011;2730;51.512;7.504;2022-11-20T13:54:22;17.60;;;8.65;;
5414;SDS011;2730;51.512;7.504;2022-11-20T13:57:21;16.40;;;8.80;;
5414;SDS011;2730;51.512;7.504;2022-11-20T14:00:07;19.55;;;8.43;;
5414;SDS011;2730;51.512;7.504;2022-11-20T14:02:38;16.70;;;9.80;;
5414;SDS011;2730;51.512;7.504;2022-11-20T14:05:05;22.35;;;9.38;;
5414;SDS011;2730;51.512;7.504;2022-11-20T14:07:42;18.00;;;9.05;;
5414;SDS011;2730;51.512;7.504;2022-11-20T14:10:18;20.90;;;9.52;;
5414;SDS011;2730;51.512;7.504;2022-11-20T14:12:46;17.00;;;8.13;;
5414;SDS011;2730;51.512;7.504;2022-11-20T14:15:23;17.42;;;8.90;;
5414;SDS011;2730;51.512;7.504;2022-11-20T14:17:51;19.05;;;8.73;;
5414;SDS011;2730;51.512;7.504;2022-11-20T14:20:18;18.60;;;8.48;;
5414;SDS011;2730;51.512;7.504;2022-11-20T14:22:49;20.02;;;9.35;;
5414;SDS011;2730;51.512;7.504;2022-11-20T14:25:20;14.50;;;8.13;;
5414;SDS011;2730;51.512;7.504;2022-11-20T14:27:52;18.92;;;9.05;;
5414;SDS011;2730;51.512;7.504;2022-11-20T14:30:21;20.73;;;9.30;;
5414;SDS011;2730;51.512;7.504;2022-11-20T14:32:50;27.23;;;9.15;;
5414;SDS011;2730;51.512;7.504;2022-11-20T14:35:20;18.98;;;8.75;;
5414;SDS011;2730;51.512;7.504;2022-11-20T14:37:52;30.77;;;9.30;;
5414;SDS011;2730;51.512;7.504;2022-11-20T14:40:22;15.43;;;8.48;;
5414;SDS011;2730;51.512;7.504;2022-11-20T14:42:51;17.75;;;8.98;;
5414;SDS011;2730;51.512;7.504;2022-11-20T14:45:18;19.08;;;9.10;;
5414;SDS011;2730;51.512;7.504;2022-11-20T14:47:46;20.10;;;8.80;;
5414;SDS011;2730;51.512;7.504;2022-11-20T14:50:16;13.98;;;8.30;;
5414;SDS011;2730;51.512;7.504;2022-11-20T14:52:53;15.43;;;7.32;;
5414;SDS011;2730;51.512;7.504;2022-11-20T14:55:31;18.17;;;9.15;;
5414;SDS011;2730;51.512;7.504;2022-11-20T14:58:00;17.70;;;9.13;;
5414;SDS011;2730;51.512;7.504;2022-11-20T15:00:29;18.52;;;8.55;;
5414;SDS011;2730;51.512;7.504;2022-11-20T15:02:56;15.90;;;8.80;;
5414;SDS011;2730;51.512;7.504;2022-11-20T15:05:24;21.35;;;9.35;;
5414;SDS011;2730;51.512;7.504;2022-11-20T15:08:11;18.75;;;8.88;;
5414;SDS011;2730;51.512;7.504;2022-11-20T15:10:38;17.70;;;8.48;;
5414;SDS011;2730;51.512;7.504;2022-11-20T15:13:12;16.90;;;9.30;;
5414;SDS011;2730;51.512;7.504;2022-11-20T15:15:42;18.58;;;9.20;;
5414;SDS011;2730;51.512;7.504;2022-11-20T15:18:12;17.80;;;8.98;;
5414;SDS011;2730;51.512;7.504;2022-11-20T15:20:40;19.30;;;8.50;;
5414;SDS011;2730;51.512;7.504;2022-11-20T15:23:09;23.30;;;9.45;;
5414;SDS011;2730;51.512;7.504;2022-11-20T15:25:38;15.55;;;7.82;;
5414;SDS011;2730;51.512;7.504;2022-11-20T15:28:08;20.20;;;9.20;;
5414;SDS011;2730;51.512;7.504;2022-11-20T15:30:42;17.77;;;9.10;;
5414;SDS011;2730;51.512;7.504;2022-11-20T15:33:09;19.23;;;9.88;;
5414;SDS011;2730;51.512;7.504;2022-11-20T15:35:36;19.63;;;9.38;;
5414;SDS011;2730;51.512;7.504;2022-11-20T15:38:03;23.83;;;10.55;;
5414;SDS011;2730;51.512;7.504;2022-11-20T15:40:31;17.67;;;9.65;;
5414;SDS011;2730;51.512;7.504;2022-11-20T15:42:58;23.33;;;10.68;;
5414;SDS011;2730;51.512;7.504;2022-11-20T15:45:33;20.95;;;9.40;;
5414;SDS011;2730;51.512;7.504;2022-11-20T15:48:04;24.05;;;9.95;;
5414;SDS011;2730;51.512;7.504;2022-11-20T15:50:36;25.08;;;11.07;;
5414;SDS011;2730;51.512;7.504;2022-11-20T15:53:04;22.40;;;11.00;;
5414;SDS011;2730;51.512;7.504;2022-11-20T15:55:32;26.83;;;11.93;;
5414;SDS011;2730;51.512;7.504;2022-11-20T15:57:59;25.40;;;11.93;;
5414;SDS011;2730;51.512;7.504;2022-11-20T16:00:27;26.15;;;11.82;;
5414;SDS011;2730;51.512;7.504;2022-11-20T16:02:53;28.77;;;12.65;;
5414;SDS011;2730;51.512;7.504;2022-11-20T16:05:20;26.00;;;11.95;;
5414;SDS011;2730;51.512;7.504;2022-11-20T16:07:49;25.13;;;12.30;;
5414;SDS011;2730;51.512;7.504;2022-11-20T16:10:17;25.27;;;11.18;;
5414;SDS011;2730;51.512;7.504;2022-11-20T16:12:45;27.30;;;12.70;;
5414;SDS011;2730;51.512;7.504;2022-11-20T16:15:30;26.40;;;12.55;;
5414;SDS011;2730;51.512;7.504;2022-11-20T16:18:12;29.75;;;13.35;;
5414;SDS011;2730;51.512;7.504;2022-11-20T16:20:41;32.40;;;15.40;;
5414;SDS011;2730;51.512;7.504;2022-11-20T16:23:08;24.77;;;12.18;;
5414;SDS011;2730;51.512;7.504;2022-11-20T16:25:35;27.60;;;13.20;;
5414;SDS011;2730;51.512;7.504;2022-11-20T16:28:03;27.58;;;12.40;;
5414;SDS011;2730;51.512;7.504;2022-11-20T16:30:30;31.83;;;14.38;;
5414;SDS011;2730;51.512;7.504;2022-11-20T16:32:58;26.85;;;12.63;;
5414;SDS011;2730;51.512;7.504;2022-11-20T16:35:25;27.83;;;13.13;;
5414;SDS011;2730;51.512;7.504;2022-11-20T16:37:53;32.72;;;14.20;;
5414;SDS011;2730;51.512;7.504;2022-11-20T16:40:19;29.45;;;13.23;;
5414;SDS011;2730;51.512;7.504;2022-11-20T16:42:46;31.45;;;14.10;;
5414;SDS011;2730;51.512;7.504;2022-11-20T16:45:14;26.05;;;12.02;;
5414;SDS011;2730;51.512;7.504;2022-11-20T16:47:41;29.77;;;12.90;;
5414;SDS011;2730;51.512;7.504;2022-11-20T16:50:08;29.90;;;12.60;;
5414;SDS011;2730;51.512;7.504;2022-11-20T16:52:35;28.60;;;13.10;;
5414;SDS011;2730;51.512;7.504;2022-11-20T16:55:03;30.13;;;12.95;;
5414;SDS011;2730;51.512;7.504;2022-11-20T16:57:30;32.83;;;14.07;;
5414;SDS011;2730;51.512;7.504;2022-11-20T16:59:59;31.52;;;12.52;;
5414;SDS011;2730;51.512;7.504;2022-11-20T17:02:27;36.63;;;14.70;;
5414;SDS011;2730;51.512;7.504;2022-11-20T17:04:54;30.23;;;14.10;;
5414;SDS011;2730;51.512;7.504;2022-11-20T17:07:21;27.45;;;13.23;;
5414;SDS011;2730;51.512;7.504;2022-11-20T17:09:48;34.88;;;14.70;;
5414;SDS011;2730;51.512;7.504;2022-11-20T17:12:14;39.78;;;14.13;;
5414;SDS011;2730;51.512;7.504;2022-11-20T17:14:41;30.35;;;13.57;;
5414;SDS011;2730;51.512;7.504;2022-11-20T17:17:08;38.08;;;16.55;;
5414;SDS011;2730;51.512;7.504;2022-11-20T17:19:36;33.30;;;14.90;;
5414;SDS011;2730;51.512;7.504;2022-11-20T17:22:03;39.15;;;16.70;;
5414;SDS011;2730;51.512;7.504;2022-11-20T17:24:30;31.23;;;15.43;;
5414;SDS011;2730;51.512;7.504;2022-11-20T17:26:56;33.28;;;15.93;;
5414;SDS011;2730;51.512;7.504;2022-11-20T17:29:23;30.13;;;15.52;;
5414;SDS011;2730;51.512;7.504;2022-11-20T17:31:50;41.90;;;17.35;;
5414;SDS011;2730;51.512;7.504;2022-11-20T17:34:17;36.70;;;16.98;;
5414;SDS011;2730;51.512;7.504;2022-11-20T17:36:45;38.58;;;17.75;;
5414;SDS011;2730;51.512;7.504;2022-11-20T17:39:12;35.13;;;16.30;;
5414;SDS011;2730;51.512;7.504;2022-11-20T17:41:40;45.38;;;17.45;;
5414;SDS011;2730;51.512;7.504;2022-11-20T17:44:08;42.63;;;18.35;;
5414;SDS011;2730;51.512;7.504;2022-11-20T17:46:36;42.00;;;18.00;;
5414;SDS011;2730;51.512;7.504;2022-11-20T17:49:02;40.38;;;16.60;;
5414;SDS011;2730;51.512;7.504;2022-11-20T17:51:30;37.80;;;16.38;;
5414;SDS011;2730;51.512;7.504;2022-11-20T17:54:00;47.80;;;18.50;;
5414;SDS011;2730;51.512;7.504;2022-11-20T17:56:29;41.35;;;17.42;;
5414;SDS011;2730;51.512;7.504;2022-11-20T17:59:15;38.15;;;16.80;;
5414;SDS011;2730;51.512;7.504;2022-11-20T18:01:43;42.28;;;17.45;;
5414;SDS011;2730;51.512;7.504;2022-11-20T18:04:10;51.42;;;18.60;;
5414;SDS011;2730;51.512;7.504;2022-11-20T18:06:37;37.90;;;17.42;;
5414;SDS011;2730;51.512;7.504;2022-11-20T18:09:06;49.60;;;19.27;;
5414;SDS011;2730;51.512;7.504;2022-11-20T18:11:33;38.35;;;18.17;;
5414;SDS011;2730;51.512;7.504;2022-11-20T18:14:01;48.25;;;19.60;;
5414;SDS011;2730;51.512;7.504;2022-11-20T18:16:49;41.70;;;19.27;;
5414;SDS011;2730;51.512;7.504;2022-11-20T18:19:19;54.17;;;21.48;;
5414;SDS011;2730;51.512;7.504;2022-11-20T18:21:48;48.83;;;20.70;;
5414;SDS011;2730;51.512;7.504;2022-11-20T18:24:16;57.40;;;24.17;;
5414;SDS011;2730;51.512;7.504;2022-11-20T18:26:43;56.70;;;22.20;;
5414;SDS011;2730;51.512;7.504;2022-11-20T18:29:10;48.80;;;21.50;;
5414;SDS011;2730;51.512;7.504;2022-11-20T18:31:38;56.60;;;21.77;;
5414;SDS011;2730;51.512;7.504;2022-11-20T18:34:05;45.63;;;20.65;;
5414;SDS011;2730;51.512;7.504;2022-11-20T18:36:35;47.70;;;22.05;;
5414;SDS011;2730;51.512;7.504;2022-11-20T18:39:03;46.40;;;21.30;;
5414;SDS011;2730;51.512;7.504;2022-11-20T18:41:31;50.53;;;21.75;;
5414;SDS011;2730;51.512;7.504;2022-11-20T18:44:16;44.17;;;19.98;;
5414;SDS011;2730;51.512;7.504;2022-11-20T18:47:02;42.60;;;19.33;;
5414;SDS011;2730;51.512;7.504;2022-11-20T18:49:30;41.85;;;17.92;;
5414;SDS011;2730;51.512;7.504;2022-11-20T18:51:57;47.08;;;19.33;;
5414;SDS011;2730;51.512;7.504;2022-11-20T18:54:24;45.08;;;18.15;;
5414;SDS011;2730;51.512;7.504;2022-11-20T18:56:56;43.40;;;19.95;;
5414;SDS011;2730;51.512;7.504;2022-11-20T18:59:23;44.63;;;17.95;;
5414;SDS011;2730;51.512;7.504;2022-11-20T19:01:50;38.63;;;17.52;;
5414;SDS011;2730;51.512;7.504;2022-11-20T19:04:17;40.50;;;16.67;;
5414;SDS011;2730;51.512;7.504;2022-11-20T19:06:47;43.85;;;18.67;;
5414;SDS011;2730;51.512;7.504;2022-11-20T19:09:16;53.05;;;19.77;;
5414;SDS011;2730;51.512;7.504;2022-11-20T19:11:43;43.95;;;18.77;;
5414;SDS011;2730;51.512;7.504;2022-11-20T19:14:12;44.40;;;20.67;;
5414;SDS011;2730;51.512;7.504;2022-11-20T19:16:39;43.38;;;21.30;;
5414;SDS011;2730;51.512;7.504;2022-11-20T19:19:07;46.50;;;21.08;;
5414;SDS011;2730;51.512;7.504;2022-11-20T19:21:34;46.22;;;20.63;;
5414;SDS011;2730;51.512;7.504;2022-11-20T19:24:02;49.15;;;20.05;;
5414;SDS011;2730;51.512;7.504;2022-11-20T19:26:29;51.15;;;19.33;;
5414;SDS011;2730;51.512;7.504;2022-11-20T19:28:56;46.05;;;19.83;;
5414;SDS011;2730;51.512;7.504;2022-11-20T19:31:25;49.72;;;20.55;;
5414;SDS011;2730;51.512;7.504;2022-11-20T19:33:52;51.72;;;19.08;;
5414;SDS011;2730;51.512;7.504;2022-11-20T19:36:21;45.30;;;19.85;;
5414;SDS011;2730;51.512;7.504;2022-11-20T19:38:49;51.03;;;20.25;;
5414;SDS011;2730;51.512;7.504;2022-11-20T19:41:18;62.80;;;25.20;;
5414;SDS011;2730;51.512;7.504;2022-11-20T19:43:45;47.60;;;20.00;;
5414;SDS011;2730;51.512;7.504;2022-11-20T19:46:14;50.90;;;19.85;;
5414;SDS011;2730;51.512;7.504;2022-11-20T19:48:43;53.50;;;22.23;;
5414;SDS011;2730;51.512;7.504;2022-11-20T19:51:10;52.58;;;20.23;;
5414;SDS011;2730;51.512;7.504;2022-11-20T19:53:38;52.53;;;21.15;;
5414;SDS011;2730;51.512;7.504;2022-11-20T19:56:05;48.80;;;20.38;;
5414;SDS011;2730;51.512;7.504;2022-11-20T19:58:32;53.08;;;21.83;;
5414;SDS011;2730;51.512;7.504;2022-11-20T20:01:04;47.97;;;19.67;;
5414;SDS011;2730;51.512;7.504;2022-11-20T20:03:31;53.08;;;19.95;;
5414;SDS011;2730;51.512;7.504;2022-11-20T20:06:01;57.08;;;20.92;;
5414;SDS011;2730;51.512;7.504;2022-11-20T20:08:29;39.55;;;17.92;;
5414;SDS011;2730;51.512;7.504;2022-11-20T20:10:56;39.05;;;16.70;;
5414;SDS011;2730;51.512;7.504;2022-11-20T20:13:23;53.72;;;22.73;;
5414;SDS011;2730;51.512;7.504;2022-11-20T20:15:51;42.03;;;16.60;;
5414;SDS011;2730;51.512;7.504;2022-11-20T20:18:18;38.58;;;17.13;;
5414;SDS011;2730;51.512;7.504;2022-11-20T20:20:44;37.75;;;15.05;;
5414;SDS011;2730;51.512;7.504;2022-11-20T20:23:13;35.55;;;16.38;;
5414;SDS011;2730;51.512;7.504;2022-11-20T20:25:39;33.92;;;16.95;;
5414;SDS011;2730;51.512;7.504;2022-11-20T20:28:06;33.17;;;15.05;;
5414;SDS011;2730;51.512;7.504;2022-11-20T20:30:34;38.40;;;17.83;;
5414;SDS011;2730;51.512;7.504;2022-11-20T20:33:02;37.88;;;16.67;;
5414;SDS011;2730;51.512;7.504;2022-11-20T20:35:29;44.65;;;17.58;;
5414;SDS011;2730;51.512;7.504;2022-11-20T20:37:55;43.92;;;17.40;;
5414;SDS011;2730;51.512;7.504;2022-11-20T20:40:23;43.53;;;17.58;;
5414;SDS011;2730;51.512;7.504;2022-11-20T20:42:50;45.63;;;19.15;;
5414;SDS011;2730;51.512;7.504;2022-11-20T20:45:17;44.53;;;19.27;;
5414;SDS011;2730;51.512;7.504;2022-11-20T20:47:44;39.97;;;17.90;;
5414;SDS011;2730;51.512;7.504;2022-11-20T20:50:11;51.97;;;18.27;;
5414;SDS011;2730;51.512;7.504;2022-11-20T20:52:38;49.70;;;17.85;;
5414;SDS011;2730;51.512;7.504;2022-11-20T20:55:05;45.38;;;17.30;;
5414;SDS011;2730;51.512;7.504;2022-11-20T20:57:34;43.65;;;17.25;;
5414;SDS011;2730;51.512;7.504;2022-11-20T21:00:01;42.50;;;17.20;;
5414;SDS011;2730;51.512;7.504;2022-11-20T21:02:29;38.05;;;15.02;;
5414;SDS011;2730;51.512;7.504;2022-11-20T21:04:56;46.80;;;19.30;;
5414;SDS011;2730;51.512;7.504;2022-11-20T21:07:23;41.97;;;17.80;;
5414;SDS011;2730;51.512;7.504;2022-11-20T21:09:51;50.35;;;17.55;;
5414;SDS011;2730;51.512;7.504;2022-11-20T21:12:17;52.13;;;18.88;;
5414;SDS011;2730;51.512;7.504;2022-11-20T21:14:46;45.47;;;18.63;;
5414;SDS011;2730;51.512;7.504;2022-11-20T21:17:12;37.40;;;16.80;;